createdAt,value
2023-03-26T00:01:48.046Z,1.90
2023-03-26T00:04:19.991Z,2.30
2023-03-26T00:06:49.203Z,2.08
2023-03-26T00:09:18.771Z,2.90
2023-03-26T00:11:46.917Z,2.28
2023-03-26T00:14:18.048Z,2.85
2023-03-26T00:16:45.706Z,2.40
2023-03-26T00:19:14.075Z,1.75
2023-03-26T00:21:41.716Z,2.38
2023-03-26T00:24:15.366Z,1.48
2023-03-26T00:26:43.144Z,1.77
2023-03-26T00:29:12.096Z,2.42
2023-03-26T00:31:40.071Z,1.70
2023-03-26T00:34:08.636Z,1.40
2023-03-26T00:36:36.154Z,1.60
2023-03-26T00:39:06.803Z,1.27
2023-03-26T00:41:37.325Z,1.48
2023-03-26T00:44:05.288Z,1.60
2023-03-26T00:46:32.609Z,2.00
2023-03-26T00:49:02.044Z,2.08
2023-03-26T00:51:29.266Z,1.73
2023-03-26T00:53:58.173Z,2.05
2023-03-26T00:56:26.104Z,1.98
2023-03-26T00:58:53.597Z,1.55
2023-03-26T01:01:29.389Z,1.55
2023-03-26T01:04:08.333Z,1.52
2023-03-26T01:06:39.154Z,1.70
2023-03-26T01:09:17.310Z,1.48
2023-03-26T01:11:45.163Z,1.48
2023-03-26T01:14:17.284Z,1.27
2023-03-26T01:16:52.634Z,1.52
2023-03-26T01:19:29.395Z,1.20
2023-03-26T01:21:59.139Z,1.20
2023-03-26T01:24:26.962Z,0.90
2023-03-26T01:27:09.859Z,1.40
2023-03-26T01:29:44.806Z,0.85
2023-03-26T01:32:33.283Z,1.08
2023-03-26T01:35:32.763Z,0.95
2023-03-26T01:38:02.696Z,1.05
2023-03-26T01:40:43.143Z,1.13
2023-03-26T01:43:42.178Z,1.08
2023-03-26T01:46:11.531Z,1.30
2023-03-26T01:48:42.448Z,1.50
2023-03-26T01:51:11.893Z,1.63
2023-03-26T01:53:47.869Z,0.90
2023-03-26T01:56:26.099Z,1.15
2023-03-26T01:59:05.088Z,0.80
2023-03-26T02:02:09.104Z,0.77
2023-03-26T02:05:01.756Z,1.40
2023-03-26T02:21:59.962Z,0.90
2023-03-26T02:24:29.435Z,1.42
2023-03-26T02:26:58.310Z,1.40
2023-03-26T02:29:28.877Z,1.95
2023-03-26T02:31:57.835Z,1.48
2023-03-26T02:34:32.984Z,1.27
2023-03-26T02:37:01.029Z,1.27
2023-03-26T02:39:29.997Z,1.48
2023-03-26T02:42:02.559Z,1.35
2023-03-26T02:44:33.174Z,0.90
2023-03-26T02:47:00.531Z,1.08
2023-03-26T02:49:46.926Z,1.40
2023-03-26T02:52:22.037Z,1.90
2023-03-26T02:54:51.309Z,1.98
2023-03-26T02:57:24.717Z,0.98
2023-03-26T03:00:16.970Z,1.20
2023-03-26T03:02:50.691Z,1.20
2023-03-26T03:05:34.025Z,1.52
2023-03-26T03:08:18.537Z,1.35
2023-03-26T03:11:25.081Z,1.20
2023-03-26T03:13:54.929Z,1.27
2023-03-26T03:16:26.047Z,1.27
2023-03-26T03:18:58.137Z,0.98
2023-03-26T03:21:37.444Z,1.45
2023-03-26T03:24:05.381Z,1.20
2023-03-26T03:26:38.025Z,1.88
2023-03-26T03:29:33.909Z,1.83
2023-03-26T03:32:25.917Z,1.30
2023-03-26T03:34:56.900Z,1.65
2023-03-26T03:37:27.620Z,1.08
2023-03-26T03:39:56.149Z,1.23
2023-03-26T03:42:27.754Z,1.40
2023-03-26T03:44:57.649Z,1.40
2023-03-26T03:47:54.742Z,1.45
2023-03-26T03:50:35.669Z,1.58
2023-03-26T03:53:20.276Z,1.50
2023-03-26T03:55:53.704Z,1.88
2023-03-26T03:58:28.412Z,1.48
2023-03-26T04:01:04.468Z,1.58
2023-03-26T04:03:54.072Z,2.00
2023-03-26T04:06:27.540Z,1.67
2023-03-26T04:08:55.080Z,1.48
2023-03-26T04:11:23.277Z,1.50
2023-03-26T04:14:24.498Z,1.42
2023-03-26T04:17:00.795Z,1.65
2023-03-26T04:19:30.526Z,1.40
2023-03-26T04:22:02.673Z,2.05
2023-03-26T04:24:40.260Z,1.20
2023-03-26T04:27:14.904Z,1.27
2023-03-26T04:29:47.032Z,1.23
2023-03-26T04:32:30.359Z,0.98
2023-03-26T04:35:01.552Z,1.02
2023-03-26T04:37:34.542Z,0.90
2023-03-26T04:40:14.308Z,0.90
2023-03-26T04:43:01.066Z,1.10
2023-03-26T04:45:54.096Z,1.20
2023-03-26T04:48:28.000Z,1.35
2023-03-26T04:50:55.973Z,1.05
2023-03-26T04:53:24.356Z,1.10
2023-03-26T04:56:26.792Z,1.60
2023-03-26T04:59:15.032Z,1.45
2023-03-26T05:01:46.151Z,1.55
2023-03-26T05:04:15.971Z,1.60
2023-03-26T05:06:43.898Z,1.98
2023-03-26T05:09:21.407Z,2.13
2023-03-26T05:14:46.249Z,1.75
2023-03-26T05:17:21.529Z,1.60
2023-03-26T05:19:49.288Z,2.70
2023-03-26T05:22:17.755Z,2.45
2023-03-26T05:25:05.565Z,2.00
2023-03-26T05:27:33.712Z,1.90
2023-03-26T05:30:02.084Z,1.58
2023-03-26T05:32:34.092Z,1.65
2023-03-26T05:35:02.226Z,1.50
2023-03-26T05:37:31.218Z,1.55
2023-03-26T05:40:04.432Z,1.25
2023-03-26T05:42:51.503Z,2.92
2023-03-26T09:27:28.431Z,1.40
2023-03-26T09:30:15.757Z,4.13
2023-03-26T09:33:21.165Z,2.03
2023-03-26T09:35:57.364Z,0.80
2023-03-26T09:38:45.280Z,1.00
2023-03-26T09:41:43.933Z,1.25
2023-03-26T09:44:35.718Z,1.35
2023-03-26T09:47:37.636Z,1.10
2023-03-26T09:50:20.105Z,0.70
2023-03-26T09:52:55.658Z,0.77
2023-03-26T09:55:29.709Z,0.60
2023-03-26T09:58:00.514Z,0.98
2023-03-26T10:00:42.795Z,1.20
2023-03-26T10:03:44.476Z,0.95
2023-03-26T10:06:35.756Z,1.52
2023-03-26T10:09:20.992Z,1.13
2023-03-26T10:12:06.410Z,1.40
2023-03-26T10:14:51.088Z,0.98
2023-03-26T10:17:43.984Z,1.48
2023-03-26T10:20:50.791Z,1.38
2023-03-26T10:23:49.952Z,1.50
2023-03-26T10:26:39.156Z,0.82
2023-03-26T10:29:38.378Z,0.70
2023-03-26T10:32:31.885Z,1.85
2023-03-26T10:35:20.740Z,2.03
2023-03-26T10:38:26.496Z,1.17
2023-03-26T10:41:15.358Z,0.68
2023-03-26T10:44:05.573Z,3.05
2023-03-26T10:46:50.634Z,1.38
2023-03-26T10:50:02.646Z,1.35
2023-03-26T10:52:38.040Z,0.95
2023-03-26T10:55:38.014Z,1.13
2023-03-26T10:58:24.456Z,7.50
2023-03-26T11:01:05.925Z,1.15
2023-03-26T11:03:53.282Z,1.42
2023-03-26T11:06:31.031Z,1.65
2023-03-26T11:09:03.667Z,1.45
2023-03-26T11:11:51.492Z,0.82
2023-03-26T11:14:35.145Z,1.50
2023-03-26T11:17:40.678Z,1.48
2023-03-26T11:20:16.933Z,1.35
2023-03-26T11:25:32.993Z,0.95
2023-03-26T11:28:39.048Z,1.40
2023-03-26T11:31:18.706Z,0.90
2023-03-26T11:33:53.053Z,1.15
2023-03-26T11:36:36.758Z,0.90
2023-03-26T11:39:10.549Z,1.10
2023-03-26T11:41:38.028Z,1.10
2023-03-26T11:44:34.567Z,1.35
2023-03-26T11:47:08.949Z,0.95
2023-03-26T11:49:37.757Z,0.75
2023-03-26T11:52:05.405Z,0.88
2023-03-26T11:54:33.971Z,0.85
2023-03-26T11:57:08.634Z,0.80
2023-03-26T11:59:56.983Z,0.73
2023-03-26T12:02:24.932Z,1.08
2023-03-26T12:04:57.272Z,0.90
2023-03-26T12:07:34.897Z,0.60
2023-03-26T12:10:19.013Z,0.93
2023-03-26T12:12:48.496Z,0.80
2023-03-26T12:15:21.520Z,1.52
2023-03-26T12:17:53.750Z,1.05
2023-03-26T12:20:32.469Z,1.38
2023-03-26T12:23:03.126Z,1.40
2023-03-26T12:25:35.620Z,6.03
2023-03-26T12:28:13.361Z,1.80
2023-03-26T12:30:45.199Z,8.05
2023-03-26T12:33:26.342Z,4.93
2023-03-26T12:35:58.505Z,2.10
2023-03-26T12:38:30.530Z,1.00
2023-03-26T12:44:43.383Z,0.90
2023-03-26T12:44:49.866Z,1.73
2023-03-26T12:47:58.101Z,1.27
2023-03-26T12:50:14.772Z,0.93
2023-03-26T12:53:15.088Z,0.98
2023-03-26T12:56:00.730Z,0.90
2023-03-26T12:58:51.574Z,0.80
2023-03-26T13:01:36.279Z,0.80
2023-03-26T13:04:30.266Z,0.93
2023-03-26T13:07:22.211Z,1.27
2023-03-26T13:10:10.985Z,1.33
2023-03-26T13:12:58.468Z,1.20
2023-03-26T13:15:36.704Z,1.35
2023-03-26T13:18:31.937Z,1.30
2023-03-26T13:21:02.179Z,1.25
2023-03-26T13:23:48.762Z,0.85
2023-03-26T13:26:28.584Z,1.13
2023-03-26T13:29:34.195Z,0.60
2023-03-26T13:32:20.516Z,0.80
2023-03-26T13:35:08.247Z,1.60
2023-03-26T13:38:04.706Z,0.80
2023-03-26T13:40:40.743Z,0.80
2023-03-26T13:43:23.902Z,0.88
2023-03-26T13:45:56.437Z,0.73
2023-03-26T13:48:28.691Z,1.42
2023-03-26T13:51:02.462Z,1.90
2023-03-26T13:53:42.140Z,1.80
2023-03-26T13:56:15.011Z,1.90
2023-03-26T13:58:48.973Z,0.80
2023-03-26T14:01:22.566Z,0.70
2023-03-26T14:04:06.990Z,0.73
2023-03-26T14:06:47.908Z,1.00
2023-03-26T14:09:32.765Z,2.10
2023-03-26T14:12:22.083Z,1.48
2023-03-26T14:14:59.444Z,6.25
2023-03-26T14:17:46.689Z,0.82
2023-03-26T14:20:32.049Z,0.80
2023-03-26T14:23:17.742Z,1.30
2023-03-26T14:26:10.804Z,1.13
2023-03-26T14:29:13.994Z,1.40
2023-03-26T14:31:56.861Z,1.10
2023-03-26T14:34:45.681Z,1.42
2023-03-26T14:37:58.768Z,1.50
2023-03-26T14:40:44.185Z,1.42
2023-03-26T14:43:47.184Z,0.80
2023-03-26T14:46:37.908Z,0.93
2023-03-26T14:49:40.529Z,1.30
2023-03-26T14:52:13.806Z,1.58
2023-03-26T14:54:49.687Z,1.90
2023-03-26T14:57:55.700Z,2.00
2023-03-26T15:01:04.013Z,1.15
2023-03-26T15:04:20.109Z,0.88
2023-03-26T15:06:59.680Z,0.55
2023-03-26T15:09:55.773Z,0.70
2023-03-26T15:13:17.708Z,1.13
2023-03-26T15:16:38.887Z,1.25
2023-03-26T15:19:30.637Z,1.00
2023-03-26T15:22:49.221Z,0.75
2023-03-26T15:25:48.072Z,1.25
2023-03-26T15:28:53.575Z,1.17
2023-03-26T15:31:47.928Z,1.00
2023-03-26T15:34:45.087Z,1.33
2023-03-26T15:37:34.514Z,1.73
2023-03-26T15:40:40.582Z,1.30
2023-03-26T15:43:19.454Z,1.75
2023-03-26T15:46:27.002Z,1.10
2023-03-26T15:49:05.536Z,1.10
2023-03-26T15:52:20.421Z,1.35
2023-03-26T15:55:14.650Z,1.10
2023-03-26T15:58:02.557Z,0.90
2023-03-26T16:00:36.419Z,1.77
2023-03-26T16:03:13.188Z,1.35
2023-03-26T16:05:48.000Z,2.05
2023-03-26T16:08:25.744Z,1.80
2023-03-26T16:11:04.362Z,6.45
2023-03-26T16:13:41.681Z,4.15
2023-03-26T16:16:16.398Z,12.20
2023-03-26T16:18:47.006Z,19.60
2023-03-26T16:21:36.791Z,12.98
2023-03-26T16:24:07.543Z,2.53
2023-03-26T16:26:54.701Z,13.70
2023-03-26T16:29:27.271Z,1.80
2023-03-26T16:32:10.085Z,2.22
2023-03-26T16:34:49.491Z,1.17
2023-03-26T16:37:38.052Z,3.97
2023-03-26T16:40:23.771Z,1.90
2023-03-26T16:43:06.595Z,2.05
2023-03-26T16:45:55.526Z,0.77
2023-03-26T16:48:27.845Z,1.10
2023-03-26T16:51:10.619Z,5.97
2023-03-26T16:53:52.146Z,1.08
2023-03-26T16:56:48.947Z,0.98
2023-03-26T17:00:05.203Z,1.10
2023-03-26T17:02:52.555Z,1.20
2023-03-26T17:05:34.364Z,1.95
2023-03-26T17:08:36.265Z,4.40
2023-03-26T17:11:18.920Z,7.57
2023-03-26T17:14:30.544Z,9.35
2023-03-26T17:17:37.012Z,8.85
2023-03-26T17:20:33.453Z,7.60
2023-03-26T17:23:05.760Z,8.45
2023-03-26T17:26:00.028Z,11.38
2023-03-26T17:29:06.345Z,12.87
2023-03-26T17:31:45.069Z,19.67
2023-03-26T17:34:46.747Z,35.03
2023-03-26T17:37:17.077Z,39.38
2023-03-26T17:39:46.941Z,35.25
2023-03-26T17:42:25.218Z,32.90
2023-03-26T17:44:57.865Z,30.25
2023-03-26T17:47:47.140Z,28.52
2023-03-26T17:50:18.540Z,14.55
2023-03-26T17:53:33.738Z,13.98
2023-03-26T17:56:06.756Z,15.25
2023-03-26T17:58:58.821Z,17.85
2023-03-26T18:01:41.586Z,19.55
2023-03-26T18:04:19.779Z,22.00
2023-03-26T18:07:00.726Z,17.00
2023-03-26T18:09:43.398Z,29.38
2023-03-26T18:12:38.173Z,26.98
2023-03-26T18:15:36.302Z,41.33
2023-03-26T18:18:20.104Z,50.95
2023-03-26T18:20:49.854Z,40.70
2023-03-26T18:23:34.656Z,27.95
2023-03-26T18:26:20.265Z,25.45
2023-03-26T18:28:54.545Z,27.38
2023-03-26T18:31:26.566Z,21.75
2023-03-26T18:34:03.477Z,27.25
2023-03-26T18:36:31.256Z,37.58
2023-03-26T18:38:59.820Z,60.42
2023-03-26T18:41:42.029Z,49.83
2023-03-26T18:44:18.174Z,50.88
2023-03-26T18:49:16.196Z,32.22
2023-03-26T18:51:56.160Z,35.45
2023-03-26T18:54:30.160Z,41.55
2023-03-26T18:56:59.123Z,47.05
2023-03-26T18:59:35.288Z,31.95
2023-03-26T19:02:07.032Z,13.65
2023-03-26T19:04:37.073Z,10.10
2023-03-26T19:07:08.698Z,8.57
2023-03-26T19:09:37.662Z,9.25
2023-03-26T19:12:08.836Z,10.77
2023-03-26T19:15:02.524Z,11.25
2023-03-26T19:17:34.701Z,23.10
2023-03-26T19:20:03.824Z,19.50
2023-03-26T19:22:31.684Z,14.30
2023-03-26T19:25:02.218Z,16.17
2023-03-26T19:27:29.659Z,15.98
2023-03-26T19:29:58.130Z,28.08
2023-03-26T19:32:34.793Z,48.42
2023-03-26T19:35:04.617Z,47.25
2023-03-26T19:37:32.605Z,54.17
2023-03-26T19:40:14.441Z,53.85
2023-03-26T19:42:45.010Z,81.43
2023-03-26T19:45:20.646Z,90.82
2023-03-26T19:47:57.331Z,82.70
2023-03-26T19:50:34.434Z,95.75
2023-03-26T19:53:19.048Z,89.30
2023-03-26T19:55:58.121Z,79.82
2023-03-26T19:58:27.355Z,59.92
2023-03-26T20:00:56.652Z,69.15
2023-03-26T20:03:30.508Z,63.40
2023-03-26T20:05:58.264Z,66.75
2023-03-26T20:08:28.472Z,50.35
2023-03-26T20:10:57.387Z,48.47
2023-03-26T20:13:24.982Z,84.30
2023-03-26T20:16:05.727Z,56.20
2023-03-26T20:18:35.005Z,48.47
2023-03-26T20:21:08.942Z,55.67
2023-03-26T20:23:36.288Z,63.95
2023-03-26T20:26:03.842Z,70.57
2023-03-26T20:28:38.742Z,70.40
2023-03-26T20:31:26.915Z,69.47
2023-03-26T20:33:54.787Z,69.68
2023-03-26T20:36:33.965Z,78.38
2023-03-26T20:39:08.191Z,60.55
2023-03-26T20:41:43.060Z,65.07
2023-03-26T20:44:15.879Z,84.93
2023-03-26T20:46:44.886Z,88.78
2023-03-26T20:49:12.791Z,54.90
2023-03-26T20:51:49.155Z,51.95
2023-03-26T20:54:21.731Z,53.63
2023-03-26T20:56:50.288Z,49.78
2023-03-26T20:59:22.502Z,45.85
2023-03-26T21:01:51.504Z,48.22
2023-03-26T21:04:20.901Z,48.45
2023-03-26T21:06:49.484Z,53.60
2023-03-26T21:09:19.407Z,50.47
2023-03-26T21:12:00.886Z,49.08
2023-03-26T21:14:41.550Z,40.85
2023-03-26T21:17:21.164Z,36.28
2023-03-26T21:19:49.555Z,34.47
2023-03-26T21:22:34.475Z,31.25
2023-03-26T21:25:11.916Z,31.15
2023-03-26T21:27:58.416Z,32.65
2023-03-26T21:30:26.258Z,30.30
2023-03-26T21:32:54.511Z,29.52
2023-03-26T21:35:22.395Z,30.70
2023-03-26T21:37:50.993Z,30.08
2023-03-26T21:40:19.436Z,29.52
2023-03-26T21:42:50.726Z,30.73
2023-03-26T21:45:19.255Z,29.67
2023-03-26T21:47:47.298Z,28.95
2023-03-26T21:50:21.957Z,26.25
2023-03-26T21:52:51.226Z,33.22
2023-03-26T21:55:21.960Z,30.25
2023-03-26T21:58:08.533Z,34.22
2023-03-26T22:01:03.924Z,33.55
2023-03-26T22:03:50.662Z,33.40
2023-03-26T22:06:51.499Z,32.80
2023-03-26T22:09:26.375Z,31.73
2023-03-26T22:12:02.258Z,30.83
2023-03-26T22:14:29.700Z,30.40
2023-03-26T22:17:05.542Z,34.13
2023-03-26T22:19:36.212Z,33.38
2023-03-26T22:22:09.126Z,36.78
2023-03-26T22:24:38.647Z,37.55
2023-03-26T22:27:07.450Z,37.38
2023-03-26T22:29:34.711Z,27.50
2023-03-26T22:32:03.730Z,24.90
2023-03-26T22:34:32.019Z,23.27
2023-03-26T22:37:00.433Z,20.23
2023-03-26T22:39:27.694Z,18.65
2023-03-26T22:41:58.079Z,15.43
2023-03-26T22:44:25.711Z,12.90
2023-03-26T22:46:54.656Z,9.20
2023-03-26T22:49:21.929Z,7.43
2023-03-26T22:51:50.559Z,9.38
2023-03-26T22:54:18.179Z,9.48
2023-03-26T22:56:46.005Z,9.43
2023-03-26T22:59:13.538Z,9.60
2023-03-26T23:01:41.643Z,10.35
2023-03-26T23:04:09.080Z,10.73
2023-03-26T23:06:37.124Z,5.53
2023-03-26T23:09:07.274Z,4.72
2023-03-26T23:11:35.106Z,3.67
2023-03-26T23:14:02.625Z,4.20
2023-03-26T23:16:31.932Z,4.35
2023-03-26T23:18:59.360Z,5.15
2023-03-26T23:21:27.109Z,5.57
2023-03-26T23:23:57.364Z,7.57
2023-03-26T23:26:25.013Z,8.40
2023-03-26T23:28:52.579Z,7.80
2023-03-26T23:31:22.559Z,7.43
2023-03-26T23:33:50.512Z,7.35
2023-03-26T23:36:19.589Z,7.78
2023-03-26T23:38:48.559Z,6.38
2023-03-26T23:41:18.852Z,6.07
2023-03-26T23:43:55.758Z,6.57
2023-03-26T23:46:30.499Z,8.30
2023-03-26T23:49:00.352Z,8.50
2023-03-26T23:51:30.391Z,9.70
2023-03-26T23:53:57.887Z,8.32
2023-03-26T23:56:27.848Z,9.13
2023-03-26T23:58:55.366Z,8.60
